Time;durP1;ratioP1;P1;durP2;ratioP2;P2;SDS_P1;SDS_P2;PMS_P1;PMS_P2;Temp;Humidity;BMP_temperature;BMP_pressure;BME280_temperature;BME280_humidity;BME280_pressure;Samples;Min_cycle;Max_cycle;Signal;HPM_P1;HPM_P2
2023/11/30 00:00:10;;;;;;;7.80;5.10;;;;;;;-3.53;77.00;95711.77;108620;1273;22537;-78
2023/11/30 00:02:59;;;;;;;6.70;4.10;;;;;;;-3.52;77.05;95711.02;108686;1273;22514;-78
2023/11/30 00:05:27;;;;;;;10.20;5.40;;;;;;;-3.53;77.11;95706.72;108706;1254;22544;-78
2023/11/30 00:07:55;;;;;;;9.60;4.60;;;;;;;-3.51;77.39;95703.16;108637;1273;31103;-77
2023/11/30 00:10:25;;;;;;;8.00;4.10;;;;;;;-3.50;77.54;95697.98;108671;1270;25369;-78
2023/11/30 00:12:53;;;;;;;12.30;6.20;;;;;;;-3.48;77.72;95696.33;108695;1273;22531;-77
2023/11/30 00:15:22;;;;;;;8.50;4.60;;;;;;;-3.43;77.93;95701.86;108711;1273;24238;-78
2023/11/30 00:17:50;;;;;;;8.90;4.80;;;;;;;-3.39;77.85;95696.33;108638;1273;22647;-77
2023/11/30 00:20:18;;;;;;;13.10;6.90;;;;;;;-3.36;77.74;95706.60;108700;1273;22546;-78
2023/11/30 00:22:47;;;;;;;11.80;6.50;;;;;;;-3.33;78.06;95705.56;108665;1272;25707;-78
2023/11/30 00:25:15;;;;;;;7.90;5.30;;;;;;;-3.28;77.90;95713.36;108692;1273;22647;-77
2023/11/30 00:27:46;;;;;;;8.30;3.90;;;;;;;-3.26;78.06;95722.70;108693;1273;23473;-78
2023/11/30 00:30:15;;;;;;;9.40;4.60;;;;;;;-3.23;78.23;95723.41;108699;1267;22942;-78
2023/11/30 00:32:43;;;;;;;12.30;6.60;;;;;;;-3.15;78.28;95723.54;108732;1273;22527;-78
2023/11/30 00:35:12;;;;;;;11.10;6.80;;;;;;;-3.10;78.40;95727.07;108639;1258;22546;-78
2023/11/30 00:37:40;;;;;;;9.20;5.00;;;;;;;-3.07;78.47;95723.08;108632;1273;22518;-77
2023/11/30 00:40:10;;;;;;;9.40;6.20;;;;;;;-2.98;78.52;95716.71;108672;1269;22535;-78
2023/11/30 00:42:38;;;;;;;10.60;6.10;;;;;;;-2.93;78.66;95714.60;108677;1273;23296;-78
2023/11/30 00:45:10;;;;;;;10.60;7.00;;;;;;;-2.96;78.48;95708.56;108698;1273;22528;-78
2023/11/30 00:47:38;;;;;;;10.00;7.10;;;;;;;-3.00;78.39;95702.32;108666;1273;22524;-77
2023/11/30 00:50:08;;;;;;;9.90;6.00;;;;;;;-3.02;78.59;95694.86;108675;1273;22518;-78
2023/11/30 00:52:37;;;;;;;8.60;4.90;;;;;;;-3.01;78.47;95690.77;108698;1267;25351;-77
2023/11/30 00:55:09;;;;;;;9.80;6.90;;;;;;;-3.02;78.54;95690.82;108646;1273;22564;-78
2023/11/30 00:57:39;;;;;;;9.40;5.50;;;;;;;-3.03;78.50;95683.10;108673;1273;22533;-77
2023/11/30 01:00:12;;;;;;;8.80;5.30;;;;;;;-3.06;78.55;95674.11;108676;1267;25362;-78
2023/11/30 01:02:41;;;;;;;11.40;5.70;;;;;;;-3.05;78.45;95677.26;108681;1266;22650;-77
2023/11/30 01:05:09;;;;;;;9.90;6.10;;;;;;;-3.03;78.53;95669.05;108701;1266;22531;-78
2023/11/30 01:07:38;;;;;;;8.80;4.90;;;;;;;-3.01;78.40;95671.51;108662;1266;22538;-78
2023/11/30 01:10:08;;;;;;;8.20;5.50;;;;;;;-2.96;78.54;95673.65;108660;1273;22500;-78
2023/11/30 01:12:36;;;;;;;11.60;7.50;;;;;;;-2.94;78.57;95676.00;108659;1266;24276;-78
2023/11/30 01:15:07;;;;;;;8.80;5.70;;;;;;;-2.89;78.96;95685.38;108665;1273;22533;-78
2023/11/30 01:17:35;;;;;;;11.00;6.30;;;;;;;-2.82;78.67;95684.63;108723;1267;22543;-77
2023/11/30 01:20:04;;;;;;;7.40;5.20;;;;;;;-2.74;78.73;95680.87;108712;1273;24286;-78
2023/11/30 01:22:32;;;;;;;;;;;;;;;-2.69;78.51;95679.69;108719;1267;22513;-77
2023/11/30 01:25:00;;;;;;;8.20;5.00;;;;;;;-2.63;78.48;95676.39;108691;1269;22619;-78
2023/11/30 01:27:28;;;;;;;11.20;6.40;;;;;;;-2.62;78.29;95683.16;108684;1273;22524;-77
2023/11/30 01:29:56;;;;;;;7.80;4.70;;;;;;;-2.65;78.32;95678.98;108672;1267;21768;-78
2023/11/30 01:32:25;;;;;;;10.20;5.50;;;;;;;-2.67;78.42;95680.40;108702;1273;22518;-78
2023/11/30 01:34:53;;;;;;;10.10;6.00;;;;;;;-2.66;78.40;95675.03;108694;1273;22548;-78
2023/11/30 01:37:26;;;;;;;12.00;5.40;;;;;;;-2.66;78.29;95671.45;108649;1266;29675;-78
2023/11/30 01:39:55;;;;;;;9.20;6.00;;;;;;;-2.61;78.43;95669.70;108737;1266;22550;-77
2023/11/30 01:42:23;;;;;;;10.80;6.40;;;;;;;-2.55;78.17;95671.25;108743;1273;22517;-78
2023/11/30 01:44:52;;;;;;;11.80;6.70;;;;;;;-2.51;78.26;95669.63;108708;1267;23701;-78
2023/11/30 01:47:20;;;;;;;8.60;5.70;;;;;;;-2.51;78.30;95665.27;108670;1273;22645;-77
2023/11/30 01:49:48;;;;;;;8.20;5.30;;;;;;;-2.54;78.41;95667.13;108709;1273;22536;-78
2023/11/30 01:52:16;;;;;;;10.90;5.70;;;;;;;-2.55;78.44;95670.41;108698;1269;24221;-78
2023/11/30 01:54:44;;;;;;;8.80;5.40;;;;;;;-2.57;78.69;95673.02;108634;1273;22525;-78
2023/11/30 01:57:13;;;;;;;8.90;5.20;;;;;;;-2.55;78.40;95669.17;108623;1262;24439;-77
2023/11/30 01:59:42;;;;;;;10.60;6.00;;;;;;;-2.52;78.68;95670.52;108657;1273;22628;-78
2023/11/30 02:02:10;;;;;;;10.90;6.80;;;;;;;-2.48;78.80;95669.22;108650;1270;25410;-78
2023/11/30 02:04:42;;;;;;;9.70;5.90;;;;;;;-2.46;78.83;95669.18;108684;1267;22528;-78
2023/11/30 02:07:10;;;;;;;10.90;5.60;;;;;;;-2.42;78.76;95666.98;108752;1273;22535;-78
2023/11/30 02:09:38;;;;;;;8.60;4.80;;;;;;;-2.41;78.65;95659.02;108715;1270;22587;-78
2023/11/30 02:12:10;;;;;;;10.10;6.00;;;;;;;-2.37;78.85;95663.50;108697;1266;22539;-78
2023/11/30 02:14:39;;;;;;;9.70;5.70;;;;;;;-2.32;78.90;95660.14;108714;1270;25211;-78
2023/11/30 02:17:07;;;;;;;10.00;4.70;;;;;;;-2.28;78.95;95653.74;108700;1265;22558;-78
2023/11/30 02:19:35;;;;;;;9.30;5.70;;;;;;;-2.24;78.95;95660.34;108676;1273;22552;-78
2023/11/30 02:22:03;;;;;;;9.00;5.80;;;;;;;-2.22;78.92;95654.19;108651;1267;22855;-78
2023/11/30 02:24:32;;;;;;;8.80;4.50;;;;;;;-2.21;79.10;95655.25;108649;1272;24234;-78
2023/11/30 02:27:00;;;;;;;5.40;3.30;;;;;;;-2.18;79.18;95650.33;108717;1266;23559;-78
2023/11/30 02:29:28;;;;;;;8.50;5.30;;;;;;;-2.11;79.42;95650.30;108594;1273;25325;-78
2023/11/30 02:31:57;;;;;;;8.00;5.00;;;;;;;-2.03;79.60;95642.84;108687;1266;22545;-78
2023/11/30 02:34:25;;;;;;;8.30;4.70;;;;;;;-2.00;79.64;95648.67;108672;1266;22546;-78
2023/11/30 02:36:53;;;;;;;10.20;5.60;;;;;;;-1.94;79.43;95646.30;108703;1269;24263;-78
2023/11/30 02:39:21;;;;;;;5.90;4.00;;;;;;;-1.88;79.62;95642.85;108664;1267;22529;-78
2023/11/30 02:41:50;;;;;;;8.30;5.50;;;;;;;-1.86;79.81;95647.05;108658;1266;25275;-78
2023/11/30 02:44:18;;;;;;;5.60;3.00;;;;;;;-1.83;79.89;95647.61;108673;1273;24322;-78
2023/11/30 02:46:46;;;;;;;6.50;3.70;;;;;;;-1.76;79.74;95644.79;108693;1266;25296;-78
2023/11/30 02:49:16;;;;;;;9.20;5.10;;;;;;;-1.66;79.90;95644.30;108686;1272;22549;-78
2023/11/30 02:51:44;;;;;;;9.10;5.10;;;;;;;-1.54;79.87;95646.94;108731;1273;22657;-78
2023/11/30 02:54:13;;;;;;;8.90;6.20;;;;;;;-1.52;79.71;95642.36;108635;1271;24241;-78
2023/11/30 02:56:41;;;;;;;9.00;5.30;;;;;;;-1.46;79.87;95641.89;108690;1251;23325;-78
2023/11/30 02:59:09;;;;;;;7.70;4.30;;;;;;;-1.43;79.62;95641.19;108682;1273;24475;-78
2023/11/30 03:01:44;;;;;;;8.70;5.60;;;;;;;-1.44;79.61;95641.36;108733;1273;22739;-78
2023/11/30 03:04:12;;;;;;;9.80;6.60;;;;;;;-1.48;79.70;95642.52;108677;1270;22520;-78
2023/11/30 03:06:42;;;;;;;9.80;5.70;;;;;;;-1.56;79.55;95641.83;108699;1273;22546;-78
2023/11/30 03:09:10;;;;;;;;;;;;;;;-1.64;79.56;95647.88;108584;1270;142641;-78
2023/11/30 03:11:40;;;;;;;9.20;5.30;;;;;;;-1.72;79.62;95640.52;108705;1273;22549;-78
2023/11/30 03:14:08;;;;;;;11.70;6.50;;;;;;;-1.77;79.63;95644.88;108671;1270;22647;-78
2023/11/30 03:16:37;;;;;;;9.70;6.30;;;;;;;-1.82;79.58;95641.80;108674;1266;24358;-78
2023/11/30 03:19:05;;;;;;;9.30;6.00;;;;;;;-1.86;79.50;95640.56;108732;1273;22551;-78
2023/11/30 03:21:33;;;;;;;8.80;6.20;;;;;;;-1.91;79.57;95635.05;108673;1267;25297;-78
2023/11/30 03:24:01;;;;;;;10.30;6.10;;;;;;;-1.94;79.82;95633.84;108663;1267;22733;-78
2023/11/30 03:26:30;;;;;;;10.50;6.80;;;;;;;-1.96;79.71;95633.90;108748;1266;22632;-78
2023/11/30 03:28:58;;;;;;;7.90;4.80;;;;;;;-1.96;79.86;95634.84;108690;1273;22524;-78
2023/11/30 03:31:27;;;;;;;9.00;5.30;;;;;;;-1.97;79.71;95637.48;108614;1268;22483;-78
2023/11/30 03:33:55;;;;;;;11.00;6.90;;;;;;;-1.98;79.76;95647.63;108704;1266;22521;-78
2023/11/30 03:36:23;;;;;;;8.90;5.50;;;;;;;-1.98;79.98;95641.40;108707;1273;22524;-78
2023/11/30 03:38:53;;;;;;;10.70;6.70;;;;;;;-2.01;80.11;95633.29;108738;1273;22536;-78
2023/11/30 03:41:22;;;;;;;7.30;3.90;;;;;;;-2.04;79.94;95638.89;108668;1266;22517;-78
2023/11/30 03:43:51;;;;;;;9.30;6.00;;;;;;;-2.04;80.19;95636.18;108694;1273;22524;-78
2023/11/30 03:46:21;;;;;;;7.00;4.70;;;;;;;-2.03;80.29;95639.67;108684;1273;22527;-78
2023/11/30 03:48:49;;;;;;;8.40;5.90;;;;;;;-2.01;80.40;95639.52;108669;1273;22532;-78
2023/11/30 03:51:17;;;;;;;8.40;4.80;;;;;;;-1.98;80.49;95638.71;108703;1273;22528;-78
2023/11/30 03:53:45;;;;;;;10.20;5.60;;;;;;;-1.94;80.47;95636.80;108678;1273;24321;-78
2023/11/30 03:56:14;;;;;;;6.40;4.20;;;;;;;-1.93;80.56;95639.46;108704;1273;22523;-78
2023/11/30 03:58:42;;;;;;;9.00;5.80;;;;;;;-1.92;80.40;95637.56;108630;1273;22578;-78
2023/11/30 04:01:10;;;;;;;7.90;5.20;;;;;;;-1.90;80.71;95630.50;108652;1273;22490;-78
2023/11/30 04:03:39;;;;;;;9.60;6.70;;;;;;;-1.92;80.35;95638.29;108655;1272;22529;-78
2023/11/30 04:06:17;;;;;;;10.70;6.50;;;;;;;-1.93;80.34;95636.14;108641;1273;22615;-78
2023/11/30 04:08:45;;;;;;;7.90;4.80;;;;;;;-1.91;80.38;95633.64;108683;1272;22476;-78
2023/11/30 04:11:15;;;;;;;8.70;5.90;;;;;;;-1.87;80.34;95639.08;108655;1273;22529;-78
2023/11/30 04:13:45;;;;;;;8.70;5.40;;;;;;;-1.85;80.40;95636.23;108703;1273;22533;-78
2023/11/30 04:16:15;;;;;;;10.40;7.00;;;;;;;-1.83;80.13;95633.94;108658;1272;22527;-78
2023/11/30 04:18:43;;;;;;;7.80;4.50;;;;;;;-1.82;79.89;95638.02;108684;1273;26494;-78
2023/11/30 04:21:12;;;;;;;8.80;6.10;;;;;;;-1.81;79.44;95631.40;108682;1270;22543;-78
2023/11/30 04:23:40;;;;;;;11.50;6.50;;;;;;;-1.80;79.51;95636.25;108652;1263;22547;-78
2023/11/30 04:26:11;;;;;;;9.60;5.70;;;;;;;-1.79;79.26;95633.05;108651;1272;22647;-78
2023/11/30 04:28:39;;;;;;;10.50;5.60;;;;;;;-1.79;79.14;95634.80;108671;1266;22545;-78
2023/11/30 04:31:09;;;;;;;10.70;5.10;;;;;;;-1.83;79.06;95629.30;108760;1273;22535;-78
2023/11/30 04:33:37;;;;;;;10.30;6.30;;;;;;;-1.87;79.17;95630.31;108674;1269;22586;-78
2023/11/30 04:36:09;;;;;;;10.30;6.10;;;;;;;-1.88;79.26;95625.81;108674;1270;22602;-78
2023/11/30 04:38:37;;;;;;;11.30;7.00;;;;;;;-1.91;78.95;95628.71;108717;1273;22527;-78
2023/11/30 04:41:06;;;;;;;9.00;6.20;;;;;;;-1.91;78.95;95631.72;108705;1273;23885;-78
2023/11/30 04:43:37;;;;;;;8.30;4.50;;;;;;;-1.93;78.72;95626.95;108721;1266;22543;-78
2023/11/30 04:46:06;;;;;;;7.70;4.10;;;;;;;-1.94;78.77;95628.17;108677;1266;22539;-78
2023/11/30 04:48:34;;;;;;;10.30;6.80;;;;;;;-1.98;78.58;95622.46;108682;1273;23524;-78
2023/11/30 04:51:02;;;;;;;7.50;4.00;;;;;;;-2.01;78.76;95620.63;108690;1266;22518;-78
2023/11/30 04:53:31;;;;;;;10.70;6.50;;;;;;;-2.03;78.58;95615.31;108723;1250;22560;-78
2023/11/30 04:55:59;;;;;;;12.40;7.20;;;;;;;-2.07;78.49;95610.11;108637;1273;22638;-78
2023/11/30 04:58:28;;;;;;;10.70;6.30;;;;;;;-2.09;78.63;95607.03;108670;1266;22543;-78
2023/11/30 05:00:56;;;;;;;6.20;4.50;;;;;;;-2.15;78.54;95604.86;108651;1273;22527;-78
2023/11/30 05:03:24;;;;;;;10.70;7.30;;;;;;;-2.19;78.43;95605.85;108689;1272;26292;-78
2023/11/30 05:05:53;;;;;;;10.20;6.40;;;;;;;-2.23;78.46;95597.81;108708;1272;24283;-78
2023/11/30 05:08:21;;;;;;;8.30;5.50;;;;;;;-2.28;78.10;95597.10;108725;1273;22657;-78
2023/11/30 05:10:49;;;;;;;11.30;6.10;;;;;;;-2.30;78.05;95596.58;108726;1266;22595;-78
2023/11/30 05:13:18;;;;;;;11.20;6.30;;;;;;;-2.35;78.08;95591.48;108727;1273;22480;-78
2023/11/30 05:15:46;;;;;;;10.50;5.90;;;;;;;-2.36;77.91;95596.56;108738;1272;22519;-78
2023/11/30 05:18:14;;;;;;;10.70;6.30;;;;;;;-2.34;78.00;95594.10;108640;1272;22564;-78
2023/11/30 05:20:43;;;;;;;10.70;6.50;;;;;;;-2.35;77.84;95594.63;108679;1273;22484;-78
2023/11/30 05:23:11;;;;;;;9.70;5.10;;;;;;;-2.38;77.91;95600.86;108658;1273;22494;-78
2023/11/30 05:25:40;;;;;;;12.80;7.00;;;;;;;-2.39;77.57;95600.73;108692;1273;22524;-78
2023/11/30 05:28:08;;;;;;;8.90;4.40;;;;;;;-2.43;77.72;95604.46;108652;1251;22772;-78
2023/11/30 05:30:36;;;;;;;11.00;6.90;;;;;;;-2.48;77.63;95614.20;108702;1266;22934;-78
2023/11/30 05:33:08;;;;;;;7.00;4.00;;;;;;;-2.51;77.55;95611.23;108665;1273;22542;-78
2023/11/30 05:35:36;;;;;;;10.50;6.50;;;;;;;-2.55;77.40;95618.12;108674;1270;22613;-78
2023/11/30 05:38:05;;;;;;;12.50;7.10;;;;;;;-2.59;77.54;95610.23;108680;1273;24163;-78
2023/11/30 05:40:33;;;;;;;12.00;6.30;;;;;;;-2.65;77.36;95611.68;108687;1273;22538;-78
2023/11/30 05:43:01;;;;;;;8.00;4.80;;;;;;;-2.70;77.41;95608.18;108703;1269;25188;-78
2023/11/30 05:45:30;;;;;;;9.70;5.00;;;;;;;-2.73;77.55;95606.62;108696;1273;23504;-78
2023/11/30 05:47:58;;;;;;;9.60;7.00;;;;;;;-2.74;77.58;95601.30;108672;1273;22523;-78
2023/11/30 05:50:26;;;;;;;10.80;5.20;;;;;;;-2.78;77.50;95599.16;108640;1272;22542;-78
2023/11/30 05:52:55;;;;;;;13.40;8.30;;;;;;;-2.80;77.36;95596.95;108660;1269;23017;-78
2023/11/30 05:55:23;;;;;;;7.80;4.70;;;;;;;-2.78;77.26;95598.92;108636;1273;25307;-78
2023/11/30 05:57:52;;;;;;;8.70;5.70;;;;;;;-2.77;77.04;95593.67;108647;1267;22516;-78
2023/11/30 06:00:21;;;;;;;9.90;5.50;;;;;;;-2.73;77.00;95594.38;108671;1273;22529;-78
2023/11/30 06:02:50;;;;;;;11.00;5.20;;;;;;;-2.74;76.82;95595.42;108644;1270;22563;-78
2023/11/30 06:05:19;;;;;;;10.10;5.80;;;;;;;-2.78;76.67;95595.93;108678;1273;24215;-78
2023/11/30 06:07:47;;;;;;;9.90;5.90;;;;;;;-2.77;76.56;95596.44;108665;1272;22647;-78
2023/11/30 06:10:16;;;;;;;12.60;4.90;;;;;;;-2.80;76.54;95600.14;108661;1264;22476;-78
2023/11/30 06:12:44;;;;;;;8.60;4.60;;;;;;;-2.81;76.26;95599.67;108689;1265;25183;-78
2023/11/30 06:15:13;;;;;;;12.80;7.20;;;;;;;-2.76;76.12;95600.61;108672;1273;24211;-78
2023/11/30 06:17:41;;;;;;;7.80;4.80;;;;;;;-2.77;76.21;95600.02;108682;1266;24236;-78
2023/11/30 06:20:12;;;;;;;10.30;6.10;;;;;;;-2.76;76.15;95600.20;108686;1267;25469;-78
2023/11/30 06:22:41;;;;;;;8.50;5.20;;;;;;;-2.73;75.85;95602.36;108672;1273;22549;-78
2023/11/30 06:25:10;;;;;;;9.80;5.40;;;;;;;-2.66;75.87;95606.39;108684;1273;22626;-78
2023/11/30 06:27:38;;;;;;;10.70;5.70;;;;;;;-2.63;75.27;95609.37;108690;1273;22520;-78
2023/11/30 06:30:10;;;;;;;7.50;3.90;;;;;;;-2.59;75.32;95613.83;108674;1270;22518;-78
2023/11/30 06:32:38;;;;;;;8.00;4.70;;;;;;;-2.57;75.17;95620.27;108698;1273;25407;-78
2023/11/30 06:35:08;;;;;;;6.40;4.20;;;;;;;-2.54;75.05;95614.98;108707;1273;22510;-78
2023/11/30 06:37:36;;;;;;;8.00;4.10;;;;;;;-2.44;74.80;95617.11;108652;1273;22566;-77
2023/11/30 06:40:08;;;;;;;8.10;4.00;;;;;;;-2.38;74.83;95618.27;108685;1266;22551;-78
2023/11/30 06:42:37;;;;;;;8.30;4.30;;;;;;;-2.33;74.58;95614.16;108716;1270;23825;-78
2023/11/30 06:45:08;;;;;;;4.50;2.90;;;;;;;-2.26;74.82;95618.05;108702;1273;22549;-78
2023/11/30 06:47:36;;;;;;;8.90;4.70;;;;;;;-2.17;74.83;95617.88;108760;1273;22537;-78
2023/11/30 06:50:07;;;;;;;9.10;4.70;;;;;;;-1.98;75.22;95617.58;108768;1269;22538;-78
2023/11/30 06:52:36;;;;;;;8.70;4.80;;;;;;;-1.54;75.39;95617.75;108843;1273;22555;-78
2023/11/30 06:55:05;;;;;;;6.50;3.80;;;;;;;-1.18;74.65;95614.59;108706;1267;22551;-78
2023/11/30 06:57:34;;;;;;;7.40;4.10;;;;;;;-1.17;71.66;95613.45;108659;1273;26935;-77
2023/11/30 07:00:03;;;;;;;;;;;;;;;-1.19;72.37;95624.34;108706;1273;22498;-78
2023/11/30 07:02:32;;;;;;;10.10;5.40;;;;;;;-1.03;72.40;95616.52;108687;1269;23610;-78
2023/11/30 07:05:00;;;;;;;7.70;4.40;;;;;;;-0.60;72.72;95606.88;108670;1266;24199;-78
2023/11/30 07:07:28;;;;;;;6.20;3.50;;;;;;;-0.35;70.73;95609.25;108655;1266;22538;-77
2023/11/30 07:09:57;;;;;;;8.50;4.60;;;;;;;-0.28;69.20;95605.84;108686;1267;23870;-78
2023/11/30 07:12:25;;;;;;;9.80;5.60;;;;;;;-0.41;69.94;95603.77;108705;1273;22524;-78
2023/11/30 07:14:53;;;;;;;7.70;5.10;;;;;;;-0.49;70.25;95602.45;108679;1269;24489;-78
2023/11/30 07:17:23;;;;;;;9.50;6.00;;;;;;;-0.61;70.22;95604.20;108651;1273;22525;-77
2023/11/30 07:19:51;;;;;;;8.80;5.60;;;;;;;-0.65;70.31;95605.79;108697;1269;22536;-78
2023/11/30 07:22:22;;;;;;;7.80;4.60;;;;;;;-0.81;69.87;95604.76;108699;1265;22538;-78
2023/11/30 07:24:50;;;;;;;4.90;3.20;;;;;;;-0.94;69.63;95599.10;108701;1273;22520;-78
2023/11/30 07:27:19;;;;;;;10.00;5.80;;;;;;;-1.05;69.83;95602.79;108663;1273;22520;-78
2023/11/30 07:29:48;;;;;;;7.40;4.50;;;;;;;-1.11;69.79;95606.60;108713;1269;22646;-78
2023/11/30 07:32:16;;;;;;;8.10;4.50;;;;;;;-1.15;70.18;95603.34;108734;1266;22463;-78
2023/11/30 07:34:45;;;;;;;7.40;3.90;;;;;;;-1.14;69.65;95606.11;108706;1273;24427;-78
2023/11/30 07:37:16;;;;;;;7.50;5.30;;;;;;;-1.12;69.61;95608.33;108654;1273;25363;-77
2023/11/30 07:39:54;;;;;;;8.20;5.10;;;;;;;-1.00;70.40;95611.77;108648;1273;26504;-78
2023/11/30 07:42:23;;;;;;;6.30;3.50;;;;;;;-0.78;70.13;95613.45;108730;1266;22550;-78
2023/11/30 07:44:51;;;;;;;7.00;3.90;;;;;;;-0.69;69.79;95622.70;108668;1273;23376;-78
2023/11/30 07:47:20;;;;;;;9.20;5.50;;;;;;;-0.67;69.63;95621.48;108662;1273;22515;-77
2023/11/30 07:49:49;;;;;;;9.40;6.30;;;;;;;-0.67;69.55;95625.45;108653;1273;22519;-78
2023/11/30 07:52:18;;;;;;;10.10;5.90;;;;;;;-0.66;69.80;95629.36;108669;1273;22555;-78
2023/11/30 07:54:46;;;;;;;9.60;5.00;;;;;;;-0.67;69.83;95630.91;108636;1269;24242;-78
2023/11/30 07:57:17;;;;;;;7.90;3.40;;;;;;;-0.70;69.46;95630.95;108623;1269;22627;-78
2023/11/30 07:59:47;;;;;;;9.30;5.90;;;;;;;-0.71;69.46;95631.53;108657;1273;22537;-78
2023/11/30 08:02:16;;;;;;;7.30;3.60;;;;;;;-0.73;69.27;95627.96;108703;1269;22547;-78
2023/11/30 08:04:45;;;;;;;7.80;5.40;;;;;;;-0.78;68.52;95626.32;108684;1273;22583;-78
2023/11/30 08:07:13;;;;;;;9.00;4.90;;;;;;;-0.81;68.72;95626.58;108655;1273;22526;-77
2023/11/30 08:09:42;;;;;;;10.60;5.30;;;;;;;-0.82;68.76;95618.69;108673;1273;23336;-78
2023/11/30 08:12:10;;;;;;;6.20;3.60;;;;;;;-0.85;68.83;95616.76;108720;1273;24215;-78
2023/11/30 08:14:38;;;;;;;9.80;5.90;;;;;;;-0.85;68.82;95612.96;108603;1273;22577;-78
2023/11/30 08:17:07;;;;;;;9.20;5.60;;;;;;;-0.87;68.48;95615.40;108701;1266;22519;-78
2023/11/30 08:19:35;;;;;;;6.70;3.90;;;;;;;-0.85;68.29;95607.63;108732;1266;22531;-78
2023/11/30 08:22:04;;;;;;;8.70;5.30;;;;;;;-0.85;67.97;95602.90;108701;1272;22654;-78
2023/11/30 08:24:32;;;;;;;;;;;;;;;-0.86;67.93;95604.90;108701;1269;22556;-78
2023/11/30 08:27:02;;;;;;;8.40;3.70;;;;;;;-0.87;67.59;95604.91;108690;1273;25365;-78
2023/11/30 08:29:30;;;;;;;7.50;3.90;;;;;;;-0.84;66.58;95593.98;108687;1269;22545;-77
2023/11/30 08:31:58;;;;;;;4.50;3.50;;;;;;;-0.75;66.53;95602.84;108660;1273;22515;-78
2023/11/30 08:34:27;;;;;;;7.10;4.40;;;;;;;-0.57;67.12;95599.81;108672;1269;22536;-78
2023/11/30 08:36:55;;;;;;;6.00;3.40;;;;;;;-0.34;66.85;95602.60;108724;1273;22751;-77
2023/11/30 08:39:23;;;;;;;6.90;2.60;;;;;;;-0.26;65.70;95596.76;108708;1272;22520;-78
2023/11/30 08:41:53;;;;;;;7.60;4.50;;;;;;;-0.24;65.17;95602.98;108659;1273;22553;-78
2023/11/30 08:44:22;;;;;;;5.70;3.10;;;;;;;-0.22;65.66;95600.27;108648;1273;25416;-78
2023/11/30 08:46:51;;;;;;;10.00;4.40;;;;;;;-0.17;64.82;95594.56;108681;1273;22548;-78
2023/11/30 08:49:19;;;;;;;5.20;3.20;;;;;;;-0.15;64.30;95594.60;108661;1273;22673;-78
2023/11/30 08:51:47;;;;;;;6.00;3.10;;;;;;;-0.11;64.14;95600.25;108689;1272;22533;-77
2023/11/30 08:54:15;;;;;;;6.10;3.10;;;;;;;-0.09;63.84;95603.41;108657;1266;24212;-78
2023/11/30 08:56:43;;;;;;;8.00;4.60;;;;;;;-0.13;63.87;95605.39;108674;1273;22647;-78
2023/11/30 08:59:12;;;;;;;8.30;5.50;;;;;;;-0.15;63.99;95602.42;108700;1273;24262;-78
2023/11/30 09:01:40;;;;;;;9.90;3.70;;;;;;;-0.27;63.85;95596.12;108723;1269;22553;-78
2023/11/30 09:04:08;;;;;;;5.70;3.30;;;;;;;-0.37;63.74;95595.63;108674;1273;23061;-78
2023/11/30 09:06:37;;;;;;;6.00;3.40;;;;;;;-0.44;64.16;95589.09;108715;1273;22518;-78
2023/11/30 09:09:05;;;;;;;6.80;4.20;;;;;;;-0.50;64.24;95596.95;108688;1269;25396;-78
2023/11/30 09:11:35;;;;;;;8.10;4.00;;;;;;;-0.54;64.29;95585.07;108658;1273;24377;-78
2023/11/30 09:14:04;;;;;;;5.40;3.30;;;;;;;-0.56;64.40;95591.39;108709;1273;22684;-78
2023/11/30 09:16:32;;;;;;;7.00;3.70;;;;;;;-0.58;64.20;95583.74;108697;1266;23077;-78
2023/11/30 09:19:00;;;;;;;6.20;3.20;;;;;;;-0.50;64.31;95579.21;108652;1273;22553;-78
2023/11/30 09:21:28;;;;;;;6.20;3.90;;;;;;;-0.38;64.42;95578.90;108664;1269;22540;-78
2023/11/30 09:23:58;;;;;;;7.20;3.10;;;;;;;-0.22;64.76;95578.43;108722;1273;24240;-78
2023/11/30 09:26:26;;;;;;;6.20;4.10;;;;;;;-0.12;64.95;95578.98;108666;1273;22534;-78
2023/11/30 09:28:54;;;;;;;6.30;3.30;;;;;;;0.01;64.97;95575.89;108674;1273;24466;-78
2023/11/30 09:31:23;;;;;;;7.60;4.40;;;;;;;0.10;64.47;95577.32;108669;1273;22544;-78
2023/11/30 09:33:53;;;;;;;7.70;4.90;;;;;;;0.19;64.44;95574.86;108692;1273;22562;-79
2023/11/30 09:36:22;;;;;;;6.70;3.80;;;;;;;0.27;64.60;95572.48;108686;1264;25243;-78
2023/11/30 09:38:50;;;;;;;8.80;5.30;;;;;;;0.38;63.94;95568.83;108690;1273;22536;-78
2023/11/30 09:41:22;;;;;;;6.70;4.10;;;;;;;0.51;64.71;95575.23;108683;1270;22557;-79
2023/11/30 09:43:52;;;;;;;7.40;4.60;;;;;;;0.61;64.30;95577.77;108678;1273;23249;-79
2023/11/30 09:46:20;;;;;;;8.70;5.40;;;;;;;0.71;64.49;95568.39;108723;1273;22517;-79
2023/11/30 09:48:49;;;;;;;5.60;3.50;;;;;;;0.81;64.70;95564.19;108684;1266;23389;-79
2023/11/30 09:51:21;;;;;;;6.70;4.60;;;;;;;0.89;64.80;95563.37;108695;1273;22541;-79
2023/11/30 09:53:49;;;;;;;8.00;5.00;;;;;;;1.00;64.54;95556.23;108697;1273;22527;-79
2023/11/30 09:56:18;;;;;;;6.50;4.30;;;;;;;1.16;64.60;95552.86;108673;1266;25398;-79
2023/11/30 09:58:46;;;;;;;6.70;4.30;;;;;;;1.28;64.70;95550.12;108665;1273;22524;-79
2023/11/30 10:01:14;;;;;;;7.60;5.10;;;;;;;1.32;64.42;95554.92;108651;1266;22546;-79
2023/11/30 10:03:42;;;;;;;8.00;5.00;;;;;;;1.24;63.82;95550.75;108642;1273;22545;-79
2023/11/30 10:06:12;;;;;;;7.60;5.00;;;;;;;1.15;63.63;95540.80;108665;1273;22517;-79
2023/11/30 10:08:41;;;;;;;9.00;5.40;;;;;;;1.10;63.69;95535.52;108649;1273;22539;-79
2023/11/30 10:11:10;;;;;;;9.00;5.30;;;;;;;1.16;64.09;95535.84;108700;1272;22530;-79
2023/11/30 10:13:39;;;;;;;7.50;4.70;;;;;;;1.24;63.89;95534.61;108696;1273;22528;-79
2023/11/30 10:16:10;;;;;;;7.30;4.00;;;;;;;1.21;63.87;95530.15;108693;1273;22527;-79
2023/11/30 10:18:39;;;;;;;8.50;4.50;;;;;;;1.22;63.62;95532.98;108686;1273;24386;-79
2023/11/30 10:21:09;;;;;;;8.40;4.30;;;;;;;1.25;63.59;95535.09;108675;1272;22536;-79
2023/11/30 10:23:38;;;;;;;7.30;4.50;;;;;;;1.32;63.61;95529.70;108683;1272;22520;-79
2023/11/30 10:26:13;;;;;;;8.20;5.20;;;;;;;1.37;63.43;95523.89;108699;1273;22625;-79
2023/11/30 10:28:41;;;;;;;7.90;4.70;;;;;;;1.40;63.52;95514.40;108656;1269;22562;-79
2023/11/30 10:31:12;;;;;;;8.50;4.40;;;;;;;1.39;63.49;95505.73;108692;1269;23197;-79
2023/11/30 10:33:43;;;;;;;7.50;4.70;;;;;;;1.28;63.54;95496.18;108704;1266;22523;-79
2023/11/30 10:36:16;;;;;;;7.00;4.20;;;;;;;1.16;63.40;95494.70;108717;1272;22663;-79
2023/11/30 10:38:46;;;;;;;10.40;6.00;;;;;;;1.03;63.35;95493.85;108739;1273;22525;-79
2023/11/30 10:41:31;;;;;;;10.70;6.10;;;;;;;0.92;63.38;95494.45;108663;1273;24242;-79
2023/11/30 10:43:59;;;;;;;7.10;3.90;;;;;;;0.79;63.49;95489.40;108677;1269;23377;-79
2023/11/30 10:46:30;;;;;;;8.00;5.70;;;;;;;0.69;63.65;95487.05;108687;1269;22529;-79
2023/11/30 10:49:00;;;;;;;7.80;4.90;;;;;;;0.58;63.85;95486.29;108691;1273;22614;-79
2023/11/30 10:51:29;;;;;;;6.50;4.10;;;;;;;0.42;63.26;95489.06;108687;1266;23168;-80
2023/11/30 10:54:05;;;;;;;8.30;4.40;;;;;;;0.28;63.26;95492.33;108698;1272;22633;-80
2023/11/30 10:56:35;;;;;;;8.10;5.20;;;;;;;0.25;63.71;95493.78;108728;1272;24215;-80
2023/11/30 10:59:11;;;;;;;7.30;4.60;;;;;;;0.22;63.96;95488.52;108696;1273;24252;-80
2023/11/30 11:01:43;;;;;;;11.40;6.60;;;;;;;0.10;63.83;95487.74;108649;1273;23460;-79
2023/11/30 11:04:14;;;;;;;9.10;6.40;;;;;;;-0.03;64.37;95488.55;108697;1267;23059;-80
2023/11/30 11:06:42;;;;;;;10.60;6.20;;;;;;;-0.05;64.54;95491.64;108686;1272;22541;-79
2023/11/30 11:09:15;;;;;;;9.50;5.90;;;;;;;-0.01;65.05;95490.04;108633;1273;22754;-79
2023/11/30 11:11:44;;;;;;;10.30;5.80;;;;;;;0.04;64.83;95488.71;108676;1273;23106;-79
2023/11/30 11:14:33;;;;;;;6.00;3.90;;;;;;;0.15;65.35;95485.67;108716;1272;22542;-80
2023/11/30 11:17:06;;;;;;;;;;;;;;;0.31;65.59;95481.84;108685;1269;22583;-80
2023/11/30 11:19:38;;;;;;;11.30;6.20;;;;;;;0.40;65.33;95472.66;108705;1272;23317;-80
2023/11/30 11:22:21;;;;;;;10.40;6.40;;;;;;;0.41;64.97;95468.38;108691;1273;22536;-80
2023/11/30 11:24:55;;;;;;;9.20;5.70;;;;;;;0.50;65.15;95470.23;108690;1273;22533;-79
2023/11/30 11:27:31;;;;;;;8.70;5.80;;;;;;;0.64;65.71;95466.90;108672;1273;22535;-79
2023/11/30 11:30:05;;;;;;;10.70;5.50;;;;;;;0.75;65.80;95462.60;108656;1274;25376;-79
2023/11/30 11:32:35;;;;;;;11.50;6.80;;;;;;;0.72;65.21;95458.17;108708;1273;22551;-80